Latest Weather Observations for Rottnest Island

IDW60901

Issued at 4:35 pm WST Tuesday 21 October 2014 (issued every 10 minutes, with the page automatically refreshed every 10 minutes)

About weather observations | Map of Perth area stations | Latest observations for Perth area | Other Formats
Station Details ID: 009193 Name: ROTTNEST ISLAND Lat: -32.01 Lon: 115.50 Height: 43.1 m
Data from the previous 72 hours. | See also: Recent months at Rottnest Island
Date/Time
WST
Tmp

°C
App
Tmp
°C
Dew
Point
°C
Rel
Hum
%
Delta-T

°C
Wind Press
QNH
hPa
Press
MSL
hPa
Rain
since
9 am
mm
Dir
 
Spd
km/h
Gust
km/h
Spd
kts
Gust
kts
21/04:30pm 18.8 13.9 11.4 62 4.0 S 28 33 15 18 1019.2 1019.1 0.0
21/04:00pm 18.7 13.7 11.0 61 4.2 SSW 28 32 15 17 1019.3 1019.2 0.0
21/03:30pm 19.2 14.4 10.2 56 4.8 SSW 26 32 14 17 1019.6 1019.5 0.0
21/03:00pm 18.9 14.2 10.5 58 4.5 SSW 26 32 14 17 1020.0 1019.9 0.0
21/02:30pm 18.9 14.7 9.9 56 4.8 S 22 28 12 15 1020.2 1020.1 0.0
21/02:00pm 19.1 14.6 9.9 55 4.9 S 24 28 13 15 1020.5 1020.4 0.0
21/01:30pm 18.5 13.9 9.6 56 4.7 S 24 28 13 15 1020.7 1020.6 0.0
21/01:00pm 18.6 14.6 10.4 59 4.4 S 22 26 12 14 1021.1 1021.0 0.0
21/12:30pm 18.8 15.2 10.6 59 4.4 S 20 26 11 14 1021.5 1021.4 0.0
21/12:00pm 18.7 15.4 11.0 61 4.2 S 19 22 10 12 1021.5 1021.4 0.0
21/11:30am 18.8 15.6 11.4 62 4.1 S 19 22 10 12 1021.7 1021.6 0.0
21/11:00am 17.9 14.7 11.2 65 3.6 S 19 24 10 13 1021.9 1021.8 0.0
21/10:30am 18.2 14.7 11.0 63 3.9 SSE 20 26 11 14 1022.1 1022.0 0.0
21/10:00am 17.5 13.8 10.1 62 3.9 SSE 20 26 11 14 1022.3 1022.2 0.0
21/09:30am 17.3 13.8 10.9 66 3.4 SSE 20 28 11 15 1022.6 1022.5 0.0
21/09:00am 16.7 13.2 11.0 69 3.1 SE 20 26 11 14 1022.5 1022.4 0.0
21/08:30am 16.6 13.8 11.5 72 2.8 SE 17 24 9 13 1022.4 1022.3 0.0
21/08:00am 16.5 13.9 11.9 74 2.5 SE 17 26 9 14 1022.1 1022.0 0.0
21/07:30am 16.0 13.5 11.0 72 2.7 ESE 15 24 8 13 1022.0 1021.9 0.0
21/07:00am 15.6 13.1 11.2 75 2.4 ESE 15 20 8 11 1021.7 1021.6 0.0
21/06:30am 15.1 12.7 11.3 78 2.0 SE 15 20 8 11 1021.5 1021.4 0.0
21/06:00am 14.5 12.3 10.9 79 1.9 ESE 13 17 7 9 1021.4 1021.3 0.0
21/05:30am 14.4 12.2 10.8 79 1.9 ESE 13 15 7 8 1021.1 1021.0 0.0
21/05:00am 15.0 12.7 10.6 75 2.3 E 13 15 7 8 1020.9 1020.8 0.0
21/04:30am 15.3 14.0 9.2 67 3.1 S 6 9 3 5 1020.6 1020.5 0.0
21/04:00am 15.2 13.6 8.9 66 3.2 S 7 9 4 5 1020.3 1020.2 0.0
21/03:30am 15.2 15.0 9.1 67 3.1 CALM 0 0 0 0 1020.2 1020.1 0.0
21/03:00am 15.6 14.5 8.6 63 3.6 S 4 7 2 4 1019.9 1019.8 0.0
21/02:30am 15.5 14.1 9.0 65 3.3 S 6 9 3 5 1020.0 1019.9 0.0
21/02:00am 15.0 13.1 8.9 67 3.1 S 9 13 5 7 1019.9 1019.8 0.0
21/01:30am 15.6 13.7 9.1 65 3.3 SSW 9 17 5 9 1019.9 1019.8 0.0
21/01:00am 15.0 12.3 9.1 68 3.0 S 13 17 7 9 1020.0 1019.9 0.0
21/12:30am 14.7 11.9 8.6 67 3.1 S 13 17 7 9 1020.3 1020.2 0.0
21/12:00am 15.0 12.3 9.1 68 3.0 S 13 17 7 9 1020.3 1020.2 0.0
 
Date/Time
WST
Tmp

°C
App
Tmp
°C
Dew
Point
°C
Rel
Hum
%
Delta-T

°C
Wind Press
QNH
hPa
Press
MSL
hPa
Rain
since
9 am
mm
Dir
 
Spd
km/h
Gust
km/h
Spd
kts
Gust
kts
20/11:30pm 14.9 11.4 8.8 67 3.1 S 17 20 9 11 1020.3 1020.2 0.0
20/11:00pm 15.4 11.9 8.9 65 3.3 S 17 20 9 11 1020.5 1020.4 0.0
20/10:30pm 15.5 12.0 8.7 64 3.5 S 17 22 9 12 1020.6 1020.5 0.0
20/10:00pm 16.1 11.7 8.8 62 3.7 S 22 28 12 15 1020.4 1020.3 0.0
20/09:30pm 15.8 12.3 8.8 63 3.6 S 17 22 9 12 1020.7 1020.6 0.0
20/09:00pm 16.2 12.2 8.9 62 3.7 S 20 28 11 15 1020.8 1020.7 0.0
20/08:30pm 16.3 12.0 9.5 64 3.5 S 22 28 12 15 1020.6 1020.5 0.0
20/08:00pm 16.4 12.1 9.3 63 3.7 S 22 30 12 16 1020.5 1020.4 0.0
20/07:30pm 16.6 12.1 10.0 65 3.5 S 24 33 13 18 1020.4 1020.3 0.0
20/07:00pm 16.7 11.5 10.3 66 3.4 S 28 35 15 19 1020.0 1019.9 0.0
20/06:30pm 16.8 11.8 10.9 68 3.2 S 28 33 15 18 1020.0 1019.9 0.0
20/06:00pm 16.8 11.8 10.9 68 3.2 SSW 28 35 15 19 1019.6 1019.5 0.0
20/05:30pm 18.1 14.3 11.2 64 3.8 SSW 22 30 12 16 1019.4 1019.3 0.0
20/05:00pm 18.3 14.0 10.7 61 4.1 SSW 24 30 13 16 1019.3 1019.2 0.0
20/04:30pm 18.7 13.7 11.0 61 4.2 SW 28 35 15 19 1019.2 1019.1 0.0
20/04:00pm 18.9 13.9 11.0 60 4.3 SW 28 37 15 20 1018.9 1018.8 0.0
20/03:30pm 19.3 16.3 12.6 65 3.8 S 20 24 11 13 1018.8 1018.7 0.0
20/03:00pm 19.1 13.8 12.4 65 3.7 SW 32 39 17 21 1018.8 1018.7 0.0
20/02:30pm 20.1 16.3 12.3 61 4.4 SW 24 32 13 17 1018.6 1018.5 0.0
20/02:00pm 19.9 15.3 12.2 61 4.3 SW 28 33 15 18 1018.5 1018.4 0.0
20/01:30pm 19.0 14.6 11.8 63 4.0 SW 26 30 14 16 1018.7 1018.6 0.0
20/01:00pm 18.6 14.9 11.4 63 3.9 SSW 22 30 12 16 1018.7 1018.6 0.0
20/12:30pm 17.9 13.7 12.4 70 3.1 SSW 26 32 14 17 1018.5 1018.4 0.0
20/12:00pm 18.1 13.8 11.9 67 3.4 SSW 26 32 14 17 1018.4 1018.3 0.0
20/11:30am 18.6 14.1 11.4 63 3.9 S 26 32 14 17 1018.2 1018.1 0.0
20/11:00am 18.7 13.9 11.8 64 3.8 S 28 33 15 18 1018.3 1018.2 0.0
20/10:30am 18.1 13.8 12.1 68 3.3 S 26 32 14 17 1018.2 1018.1 0.0
20/10:00am 18.2 13.5 12.0 67 3.4 S 28 33 15 18 1018.0 1017.9 0.0
20/09:30am 18.2 13.4 11.7 66 3.6 S 28 35 15 19 1018.1 1018.0 0.0
20/09:00am 16.9 12.1 11.6 71 2.9 S 28 39 15 21 1018.2 1018.1 4.2
20/08:30am 16.9 12.1 11.6 71 2.9 S 28 35 15 19 1018.0 1017.9 4.2
20/08:00am 16.7 11.7 11.0 69 3.1 S 28 35 15 19 1018.0 1017.9 4.2
20/07:30am 16.2 11.1 10.7 70 2.9 S 28 35 15 19 1017.6 1017.5 4.2
20/07:00am 16.4 11.8 10.9 70 2.9 S 26 35 14 19 1017.2 1017.1 4.2
20/06:30am 15.4 11.2 11.0 75 2.3 S 24 30 13 16 1016.9 1016.8 4.2
20/06:00am 15.1 10.7 10.5 74 2.4 S 24 33 13 18 1016.4 1016.3 4.2
20/05:30am 14.7 8.8 10.5 76 2.2 S 32 39 17 21 1016.0 1015.9 4.2
20/05:00am 15.0 8.7 11.0 77 2.1 S 35 43 19 23 1015.8 1015.7 4.2
20/04:30am 15.0 8.8 10.2 73 2.5 S 33 43 18 23 1015.3 1015.2 4.2
20/04:00am 14.9 8.0 10.3 74 2.4 S 37 46 20 25 1015.4 1015.3 4.2
20/03:30am 14.8 9.3 10.4 75 2.3 S 30 43 16 23 1015.4 1015.3 4.2
20/03:00am 14.6 8.6 10.0 74 2.4 S 32 39 17 21 1015.4 1015.3 4.2
20/02:30am 14.6 8.9 9.8 73 2.5 S 30 39 16 21 1015.3 1015.2 4.2
20/02:00am 14.8 9.5 10.0 73 2.5 S 28 37 15 20 1015.1 1015.0 4.2
20/01:30am 14.9 9.0 10.3 74 2.4 S 32 39 17 21 1015.1 1015.0 4.2
20/01:00am 15.0 8.1 10.4 74 2.4 S 37 46 20 25 1015.1 1015.0 4.2
20/12:30am 14.8 8.3 10.2 74 2.4 S 35 46 19 25 1015.8 1015.7 4.2
20/12:00am 14.6 7.9 9.8 73 2.5 S 35 43 19 23 1016.0 1015.9 4.2
 
Date/Time
WST
Tmp

°C
App
Tmp
°C
Dew
Point
°C
Rel
Hum
%
Delta-T

°C
Wind Press
QNH
hPa
Press
MSL
hPa
Rain
since
9 am
mm
Dir
 
Spd
km/h
Gust
km/h
Spd
kts
Gust
kts
19/11:30pm 14.6 8.5 9.6 72 2.6 S 32 39 17 21 1016.2 1016.1 4.2
19/11:00pm 14.4 8.1 9.0 70 2.7 S 32 41 17 22 1016.1 1016.0 4.2
19/10:30pm 14.2 8.3 9.2 72 2.6 S 30 39 16 21 1016.2 1016.1 4.2
19/10:00pm 14.6 8.9 9.8 73 2.5 S 30 35 16 19 1016.4 1016.3 4.2
19/09:30pm 14.6 8.4 9.4 71 2.7 SSE 32 41 17 22 1016.6 1016.5 4.2
19/09:00pm 14.9 9.1 9.5 70 2.8 SSE 30 37 16 20 1016.3 1016.2 4.2
19/08:30pm 14.9 9.6 9.9 72 2.6 SSE 28 35 15 19 1016.3 1016.2 4.2
19/08:00pm 15.0 9.0 10.0 72 2.6 SE 32 43 17 23 1015.9 1015.8 4.2
19/07:30pm 15.3 9.8 10.7 74 2.4 SSE 30 37 16 20 1015.7 1015.6 4.2
19/07:00pm 15.5 9.5 10.9 74 2.4 SSE 33 41 18 22 1015.1 1015.0 4.2
19/06:30pm 15.5 10.4 10.7 73 2.5 SE 28 37 15 20 1014.7 1014.6 4.2
19/06:00pm 15.4 9.6 10.8 74 2.4 SSE 32 41 17 22 1014.2 1014.1 4.2
19/05:30pm 15.9 9.9 10.7 71 2.8 SSE 33 46 18 25 1014.0 1013.9 4.2
19/05:00pm 16.1 9.5 11.5 74 2.5 SSE 37 46 20 25 1013.7 1013.6 4.2
19/04:30pm 16.5 9.4 12.1 75 2.4 SSE 41 48 22 26 1013.5 1013.4 4.2
19/04:00pm 16.4 9.0 12.6 78 2.1 SSE 43 56 23 30 1013.3 1013.2 4.2
19/03:30pm 16.1 8.9 11.9 76 2.3 SSE 41 57 22 31 1013.2 1013.1 4.2
19/03:06pm 16.2 9.2 12.6 79 2.0 SSE 41 59 22 32 1012.9 1012.8 4.2
19/03:00pm 15.6 8.0 11.8 78 2.1 SSE 43 59 23 32 1012.9 1012.8 4.2
19/02:30pm 15.7 8.0 12.1 79 2.0 SSE 44 57 24 31 1013.0 1012.9 4.2
19/02:00pm 15.3 8.6 12.4 83 1.6 SSE 39 54 21 29 1013.2 1013.1 4.2
19/01:30pm 15.0 9.0 13.2 89 1.0 SSE 37 50 20 27 1013.9 1013.8 4.2
19/01:00pm 14.3 8.5 12.7 90 0.9 SSE 35 44 19 24 1014.3 1014.2 4.0
19/12:30pm 14.0 8.5 12.6 91 0.8 SSE 33 48 18 26 1014.5 1014.4 3.4
19/12:00pm 13.4 7.4 12.0 91 0.8 SE 35 48 19 26 1014.9 1014.8 2.6
19/11:30am 13.4 7.7 11.8 90 0.9 SSE 33 44 18 24 1015.0 1014.9 2.2
19/11:00am 13.4 7.9 12.0 91 0.8 SSE 32 41 17 22 1015.3 1015.2 1.8
19/10:30am 13.4 7.7 11.8 90 0.9 SSE 33 41 18 22 1015.6 1015.5 0.6
19/10:00am 13.4 7.8 11.6 89 1.0 SSE 32 41 17 22 1015.7 1015.6 0.4
19/09:30am 13.9 8.6 11.1 83 1.5 SE 30 37 16 20 1015.7 1015.6 0.2
19/09:00am 14.1 8.0 10.5 79 1.9 SE 33 46 18 25 1015.7 1015.6 1.2
19/08:30am 14.3 9.3 11.1 81 1.7 SSE 28 41 15 22 1015.4 1015.3 1.2
19/08:00am 14.1 8.1 10.7 80 1.8 SE 33 44 18 24 1015.3 1015.2 1.2
19/07:30am 14.0 7.9 10.6 80 1.8 SE 33 43 18 23 1015.1 1015.0 1.0
19/07:00am 15.0 10.3 10.6 75 2.3 SE 26 39 14 21 1015.1 1015.0 0.8
19/06:30am 14.9 9.3 10.3 74 2.4 SE 30 43 16 23 1015.0 1014.9 0.8
19/06:00am 14.8 8.6 10.2 74 2.4 SE 33 43 18 23 1014.9 1014.8 0.8
19/05:32am 14.8 9.6 10.2 74 2.4 SE 28 46 15 25 1014.6 1014.5 0.8
19/05:30am 14.8 9.2 10.2 74 2.4 SE 30 46 16 25 1014.6 1014.5 0.8
19/05:00am 15.0 8.2 10.6 75 2.3 SE 37 44 20 24 1014.1 1014.0 0.8
19/04:30am 15.1 9.1 10.7 75 2.3 SE 33 46 18 25 1014.2 1014.1 0.8
19/04:00am 14.9 8.8 10.5 75 2.3 SE 33 46 18 25 1014.1 1014.0 0.8
19/03:30am 15.1 8.8 10.9 76 2.2 SE 35 43 19 23 1014.1 1014.0 0.8
19/03:00am 15.1 10.6 10.1 72 2.6 ESE 24 37 13 20 1014.4 1014.3 0.8
19/02:30am 15.1 10.7 10.3 73 2.5 ESE 24 39 13 21 1014.5 1014.4 0.8
19/02:00am 14.9 9.8 10.5 75 2.3 ESE 28 43 15 23 1014.3 1014.2 0.8
19/01:30am 14.9 10.1 10.3 74 2.4 ESE 26 37 14 20 1014.9 1014.8 0.8
19/01:00am 14.8 10.4 10.4 75 2.3 ESE 24 37 13 20 1014.9 1014.8 0.8
19/12:31am 15.1 9.9 10.3 73 2.5 ESE 28 46 15 25 1015.1 1015.0 0.8
19/12:30am 15.1 9.5 10.3 73 2.5 ESE 30 46 16 25 1015.0 1014.9 0.8
19/12:00am 14.9 9.7 10.3 74 2.4 ESE 28 46 15 25 1015.1 1015.0 0.8
 
Date/Time
WST
Tmp

°C
App
Tmp
°C
Dew
Point
°C
Rel
Hum
%
Delta-T

°C
Wind Press
QNH
hPa
Press
MSL
hPa
Rain
since
9 am
mm
Dir
 
Spd
km/h
Gust
km/h
Spd
kts
Gust
kts
18/11:57pm 15.0 9.8 10.4 74 2.4 ESE 28 46 15 25 1015.1 1015.0 0.8
18/11:30pm 14.9 9.8 10.5 75 2.3 ESE 28 41 15 22 1015.2 1015.1 0.8
18/11:00pm 15.0 9.1 10.6 75 2.3 ESE 32 44 17 24 1015.0 1014.9 0.8
18/10:34pm 15.4 9.4 10.8 74 2.4 ESE 33 52 18 28 1015.1 1015.0 0.8
18/10:30pm 15.3 9.5 10.7 74 2.4 ESE 32 48 17 26 1015.0 1014.9 0.8
18/10:05pm 15.5 9.8 11.1 75 2.4 ESE 32 50 17 27 1015.1 1015.0 0.8
18/10:00pm 15.5 9.6 11.1 75 2.4 ESE 33 50 18 27 1015.2 1015.1 0.8
18/09:56pm 15.6 9.9 11.0 74 2.5 ESE 32 50 17 27 1015.2 1015.1 0.8
18/09:30pm 15.6 10.8 11.6 77 2.2 ESE 28 43 15 23 1015.4 1015.3 0.8
18/09:23pm 15.7 10.9 11.7 77 2.2 ESE 28 46 15 25 1015.5 1015.4 0.8
18/09:00pm 15.9 10.5 12.1 78 2.1 SE 32 46 17 25 1015.5 1015.4 0.8
18/08:30pm 16.0 10.2 12.6 80 1.9 SE 35 44 19 24 1014.9 1014.8 0.8
18/08:00pm 16.1 10.0 13.0 82 1.7 SSE 37 46 20 25 1014.6 1014.5 0.8
18/07:30pm 15.9 8.7 13.0 83 1.6 SSE 43 50 23 27 1014.2 1014.1 0.8
18/07:11pm 15.9 8.2 13.2 84 1.5 SSE 46 65 25 35 1013.0 1012.9 0.8
18/07:00pm 15.7 8.1 13.5 87 1.2 SSE 46 56 25 30 1013.2 1013.1 0.6
18/06:30pm 17.0 11.9 13.7 81 1.9 SE 33 46 18 25 1012.9 1012.8 0.2
18/06:12pm 17.3 12.0 13.0 76 2.4 SE 33 52 18 28 1012.7 1012.6 0.0
18/06:00pm 17.6 10.5 13.5 77 2.3 SE 43 56 23 30 1011.8 1011.7 0.0
18/05:30pm 18.0 9.9 13.1 73 2.8 SE 48 61 26 33 1011.6 1011.5 0.0
18/05:00pm 18.2 9.4 13.3 73 2.8 SSE 52 63 28 34 1011.1 1011.0 0.0

Latest Capital City Observations: Canberra | Sydney | Melbourne | Brisbane | Adelaide | Perth | Hobart | Darwin

Other Formats:

Comma delimited format used in spreadsheet applications
http://www.bom.gov.au/fwo/IDW60901/IDW60901.94602.axf

JavaScript Object Notation format (JSON) in row-major order
http://www.bom.gov.au/fwo/IDW60901/IDW60901.94602.json